createdAt,value
2023-04-16T00:01:31.131Z,42.8
2023-04-16T00:06:49.428Z,43.3
2023-04-16T00:12:07.827Z,42.9
2023-04-16T00:17:26.091Z,42.9
2023-04-16T00:22:44.684Z,42.8
2023-04-16T00:28:02.847Z,42.2
2023-04-16T00:33:21.408Z,43.8
2023-04-16T00:38:39.917Z,43
2023-04-16T00:43:57.882Z,42.7
2023-04-16T00:49:16.374Z,42.7
2023-04-16T00:54:34.611Z,43.9
2023-04-16T00:59:52.967Z,44.3
2023-04-16T01:05:11.383Z,43.7
2023-04-16T01:10:29.651Z,43.3
2023-04-16T01:15:48.138Z,44.4
2023-04-16T01:21:06.416Z,44.4
2023-04-16T01:26:24.792Z,43.2
2023-04-16T01:31:43.082Z,43.5
2023-04-16T01:37:01.147Z,44
2023-04-16T01:42:19.367Z,44.4
2023-04-16T01:47:37.860Z,43.9
2023-04-16T01:52:56.353Z,44
2023-04-16T01:58:14.276Z,44.6
2023-04-16T02:03:32.969Z,44.2
2023-04-16T02:08:51.294Z,44.2
2023-04-16T02:14:09.849Z,43.6
2023-04-16T02:19:28.221Z,44.7
2023-04-16T02:24:46.623Z,44.4
2023-04-16T02:30:04.757Z,44.8
2023-04-16T02:35:22.872Z,44.9
2023-04-16T02:40:41.445Z,45.4
2023-04-16T02:45:59.743Z,45
2023-04-16T02:51:18.052Z,44.1
2023-04-16T02:56:36.199Z,45.1
2023-04-16T03:01:55.124Z,45
2023-04-16T03:07:13.434Z,45
2023-04-16T03:12:31.618Z,45.1
2023-04-16T03:17:50.010Z,45.8
2023-04-16T03:23:08.233Z,44.6
2023-04-16T03:28:26.543Z,45.3
2023-04-16T03:33:44.860Z,45.7
2023-04-16T03:39:03.197Z,44.7
2023-04-16T03:44:21.186Z,44.7
2023-04-16T03:49:39.302Z,45.5
2023-04-16T03:54:57.443Z,45.5
2023-04-16T04:00:16.034Z,45.1
2023-04-16T04:05:34.222Z,44.9
2023-04-16T04:10:52.330Z,44.9
2023-04-16T04:16:10.743Z,45.3
2023-04-16T04:21:28.943Z,45.7
2023-04-16T04:26:47.274Z,45.8
2023-04-16T04:32:05.982Z,45.1
2023-04-16T04:37:24.375Z,45.9
2023-04-16T04:42:42.694Z,45.4
2023-04-16T04:48:00.994Z,46.2
2023-04-16T04:53:19.232Z,46.4
2023-04-16T04:58:37.771Z,46
2023-04-16T05:03:56.139Z,45.7
2023-04-16T05:09:14.980Z,46.3
2023-04-16T05:14:33.312Z,46.5
2023-04-16T05:19:51.777Z,46.3
2023-04-16T05:25:10.143Z,46.2
2023-04-16T05:30:28.483Z,46
2023-04-16T05:35:46.721Z,46
2023-04-16T05:41:04.888Z,46
2023-04-16T05:46:23.471Z,46.7
2023-04-16T05:51:41.876Z,45.8
2023-04-16T05:57:00.043Z,45.7
2023-04-16T06:02:18.617Z,46.4
2023-04-16T06:07:37.307Z,46.6
2023-04-16T06:12:55.502Z,46.8
2023-04-16T06:18:01.289Z,46.9
2023-04-16T06:23:19.464Z,46.4
2023-04-16T06:28:37.938Z,46.3
2023-04-16T06:33:56.203Z,46
2023-04-16T06:39:14.768Z,45
2023-04-16T06:44:33.291Z,39.4
2023-04-16T06:49:35.799Z,39.2
2023-04-16T06:54:54.583Z,40.8
2023-04-16T07:00:12.810Z,42.2
2023-04-16T07:05:31.329Z,42.6
2023-04-16T07:10:49.501Z,42.8
2023-04-16T07:16:07.988Z,43.3
2023-04-16T07:21:26.362Z,43.8
2023-04-16T07:26:44.405Z,44.4
2023-04-16T07:32:02.817Z,43.5
2023-04-16T07:37:20.983Z,43.7
2023-04-16T07:42:42.695Z,43.9
2023-04-16T07:48:01.149Z,44.5
2023-04-16T07:53:19.317Z,44.2
2023-04-16T07:58:37.905Z,43.7
2023-04-16T08:03:56.267Z,44.7
2023-04-16T08:09:14.481Z,43.9
2023-04-16T08:14:32.861Z,44.7
2023-04-16T08:19:51.422Z,44.9
2023-04-16T08:25:09.812Z,44.2
2023-04-16T08:30:28.195Z,45
2023-04-16T08:35:46.562Z,44.8
2023-04-16T08:41:05.120Z,44.2
2023-04-16T08:46:26.550Z,44.5
2023-04-16T08:51:45.003Z,44.7
2023-04-16T08:56:47.926Z,44.3
2023-04-16T09:02:06.810Z,44.4
2023-04-16T09:07:25.320Z,44.2
2023-04-16T09:12:43.468Z,44.3
2023-04-16T09:18:01.883Z,44.2
2023-04-16T09:23:20.612Z,45
2023-04-16T09:28:38.956Z,44.7
2023-04-16T09:33:57.152Z,44.8
2023-04-16T09:39:15.326Z,45
2023-04-16T09:44:33.643Z,45.2
2023-04-16T09:49:51.911Z,44.8
2023-04-16T09:55:09.869Z,44.5
2023-04-16T10:00:27.998Z,44.1
2023-04-16T10:05:46.538Z,44.1
2023-04-16T10:11:04.747Z,44
2023-04-16T10:16:22.997Z,44.3
2023-04-16T10:21:41.632Z,44
2023-04-16T10:26:59.784Z,44.1
2023-04-16T10:32:18.126Z,44.8
2023-04-16T10:37:36.577Z,43.9
2023-04-16T10:42:55.063Z,44.7
2023-04-16T10:48:13.706Z,44
2023-04-16T10:53:31.935Z,44.2
2023-04-16T10:58:50.240Z,45
2023-04-16T11:04:09.027Z,44.3
2023-04-16T11:09:27.733Z,45
2023-04-16T11:14:46.077Z,44.2
2023-04-16T11:20:21.687Z,44.1
2023-04-16T11:25:40.043Z,44.9
2023-04-16T11:30:58.306Z,44.1
2023-04-16T11:36:16.640Z,44
2023-04-16T11:41:35.008Z,44.2
2023-04-16T11:46:53.472Z,44.7
2023-04-16T11:52:11.737Z,44.5
2023-04-16T11:57:30.359Z,44.2
2023-04-16T12:02:50.141Z,44.7
2023-04-16T12:08:08.503Z,44.9
2023-04-16T12:13:26.795Z,44.2
2023-04-16T12:18:45.439Z,44.2
2023-04-16T12:24:03.770Z,44.9
2023-04-16T12:29:22.331Z,44.2
2023-04-16T12:34:50.220Z,44.8
2023-04-16T12:40:08.770Z,44.5
2023-04-16T12:45:27.103Z,44.1
2023-04-16T12:50:45.555Z,44
2023-04-16T12:56:03.954Z,44.2
2023-04-16T13:01:22.254Z,44.3
2023-04-16T13:06:40.282Z,44.2
2023-04-16T13:11:58.816Z,44.8
2023-04-16T13:17:17.491Z,45
2023-04-16T13:22:35.659Z,44.3
2023-04-16T13:27:53.934Z,44.8
2023-04-16T13:33:12.324Z,44.3
2023-04-16T13:38:30.859Z,44.4
2023-04-16T13:43:49.086Z,44.3
2023-04-16T13:49:07.557Z,45.1
2023-04-16T13:54:26.123Z,44.9
2023-04-16T13:59:44.703Z,45
2023-04-16T14:05:02.656Z,44.4
2023-04-16T14:10:21.235Z,44.7
2023-04-16T14:15:39.713Z,44.3
2023-04-16T14:20:58.381Z,44.8
2023-04-16T14:26:16.815Z,45.4
2023-04-16T14:31:35.356Z,44.8
2023-04-16T14:36:53.810Z,44.2
2023-04-16T14:42:12.135Z,44.7
2023-04-16T14:47:30.623Z,44.4
2023-04-16T14:52:48.933Z,44.2
2023-04-16T14:58:07.512Z,44.9
2023-04-16T15:03:26.604Z,43.9
2023-04-16T15:08:44.771Z,45
2023-04-16T15:14:02.941Z,45
2023-04-16T15:19:21.083Z,43.8
2023-04-16T15:24:39.287Z,43.9
2023-04-16T15:29:57.342Z,44.5
2023-04-16T15:35:15.564Z,44.6
2023-04-16T15:40:33.739Z,44.9
2023-04-16T15:45:52.026Z,44.7
2023-04-16T15:51:10.342Z,44.5
2023-04-16T15:56:28.759Z,45
2023-04-16T16:01:46.910Z,44.3
2023-04-16T16:07:05.384Z,44.4
2023-04-16T16:12:23.984Z,45.2
2023-04-16T16:17:42.190Z,44.9
2023-04-16T16:23:00.357Z,44.9
2023-04-16T16:28:18.906Z,44.7
2023-04-16T16:33:40.931Z,45.2
2023-04-16T16:38:59.306Z,44.8
2023-04-16T16:44:17.820Z,45.3
2023-04-16T16:49:36.222Z,45
2023-04-16T16:54:54.680Z,45
2023-04-16T17:00:13.306Z,44.9
2023-04-16T17:05:31.822Z,44.8
2023-04-16T17:10:50.161Z,45.1
2023-04-16T17:16:08.382Z,44.8
2023-04-16T17:21:26.951Z,44.6
2023-04-16T17:26:45.288Z,45.4
2023-04-16T17:32:03.755Z,45
2023-04-16T17:37:22.189Z,45.4
2023-04-16T17:42:40.728Z,45.8
2023-04-16T17:47:59.494Z,44.2
2023-04-16T17:53:17.801Z,44.7
2023-04-16T17:58:36.285Z,45.4
2023-04-16T18:03:55.519Z,44.9
2023-04-16T18:09:14.496Z,45
2023-04-16T18:14:32.809Z,45.1
2023-04-16T18:19:50.923Z,44.9
2023-04-16T18:25:09.089Z,46
2023-04-16T18:30:28.699Z,45.5
2023-04-16T18:35:47.325Z,45.6
2023-04-16T18:41:05.844Z,45.2
2023-04-16T18:46:24.516Z,46.1
2023-04-16T18:51:43.059Z,45.4
2023-04-16T18:57:01.933Z,46
2023-04-16T19:02:20.789Z,45.5
2023-04-16T19:07:39.221Z,45.7
2023-04-16T19:12:57.849Z,46.2
2023-04-16T19:18:16.146Z,46.5
2023-04-16T19:23:34.772Z,46.3
2023-04-16T19:28:53.080Z,46.4
2023-04-16T19:34:11.456Z,46.4
2023-04-16T19:39:29.945Z,46
2023-04-16T19:44:48.200Z,46.7
2023-04-16T19:50:06.406Z,46.1
2023-04-16T19:55:24.808Z,45.8
2023-04-16T20:00:43.601Z,46.7
2023-04-16T20:06:02.346Z,46
2023-04-16T20:11:20.986Z,46.8
2023-04-16T20:16:39.499Z,46.3
2023-04-16T20:21:57.646Z,47.1
2023-04-16T20:27:16.035Z,46.9
2023-04-16T20:32:34.698Z,46.4
2023-04-16T20:37:53.112Z,46.2
2023-04-16T20:43:11.586Z,47.2
2023-04-16T20:48:30.205Z,47.2
2023-04-16T20:53:48.957Z,46.3
2023-04-16T20:59:07.396Z,46.8
2023-04-16T21:04:26.195Z,47.2
2023-04-16T21:09:45.505Z,46.6
2023-04-16T21:15:03.883Z,47
2023-04-16T21:20:22.082Z,47.3
2023-04-16T21:25:40.438Z,47.7
2023-04-16T21:30:58.745Z,48.3
2023-04-16T21:36:16.883Z,47.4
2023-04-16T21:41:35.378Z,48.8
2023-04-16T21:46:53.788Z,48.9
2023-04-16T21:52:12.232Z,48.2
2023-04-16T21:57:30.551Z,47.7
2023-04-16T22:02:49.213Z,48.4
2023-04-16T22:08:25.534Z,48.3
2023-04-16T22:13:43.857Z,48.2
2023-04-16T22:19:02.312Z,48.3
2023-04-16T22:24:20.475Z,47.6
2023-04-16T22:29:38.810Z,47.7
2023-04-16T22:34:57.216Z,48
2023-04-16T22:40:15.590Z,47.8
2023-04-16T22:45:33.992Z,48.1
2023-04-16T22:50:52.228Z,47.6
2023-04-16T22:56:10.601Z,48.3
2023-04-16T23:01:29.051Z,48.4
2023-04-16T23:06:47.309Z,48.4
2023-04-16T23:12:05.807Z,47.9
2023-04-16T23:17:24.343Z,48.2
2023-04-16T23:22:42.309Z,48.4
2023-04-16T23:28:00.810Z,48
2023-04-16T23:33:19.341Z,48.3
2023-04-16T23:38:37.526Z,47.8
2023-04-16T23:43:55.457Z,48.7
2023-04-16T23:49:13.818Z,48.1
2023-04-16T23:54:32.011Z,48
2023-04-16T23:59:50.101Z,48.1
